Time;durP1;ratioP1;P1;durP2;ratioP2;P2;SDS_P1;SDS_P2;PMS_P1;PMS_P2;Temp;Humidity;BMP_temperature;BMP_pressure;BME280_temperature;BME280_humidity;BME280_pressure;Samples;Min_cycle;Max_cycle;Signal;HPM_P1;HPM_P2
2021/10/04 00:02:05;;;;;;;1.67;1.17;;;12.80;99.90;;;;;;4999301;28;20835;-72
2021/10/04 00:04:32;;;;;;;1.60;1.00;;;12.80;99.90;;;;;;4996597;28;20528;-72
2021/10/04 00:06:59;;;;;;;2.27;1.30;;;12.80;99.90;;;;;;5004742;28;20446;-73
2021/10/04 00:09:26;;;;;;;1.40;1.03;;;12.90;99.90;;;;;;4997953;28;20689;-72
2021/10/04 00:11:54;;;;;;;1.10;1.00;;;12.80;99.90;;;;;;4991867;28;20486;-72
2021/10/04 00:14:22;;;;;;;1.87;1.03;;;12.80;99.90;;;;;;4993268;28;20480;-72
2021/10/04 00:16:52;;;;;;;1.87;0.93;;;12.80;99.90;;;;;;4999452;28;20537;-72
2021/10/04 00:19:19;;;;;;;1.40;1.30;;;12.90;99.90;;;;;;4997600;28;20582;-72
2021/10/04 00:21:46;;;;;;;1.00;0.80;;;12.80;99.90;;;;;;4996556;28;21012;-72
2021/10/04 00:24:14;;;;;;;2.80;1.23;;;12.90;99.90;;;;;;4995383;28;20484;-72
2021/10/04 00:26:41;;;;;;;1.47;1.00;;;12.90;99.90;;;;;;4994970;28;20552;-72
2021/10/04 00:29:09;;;;;;;2.30;0.90;;;12.90;99.90;;;;;;4993246;28;20908;-72
2021/10/04 00:31:37;;;;;;;1.57;1.00;;;12.80;99.90;;;;;;4994172;28;20476;-71
2021/10/04 00:34:05;;;;;;;2.70;1.10;;;12.80;99.90;;;;;;5000420;28;20488;-72
2021/10/04 00:36:32;;;;;;;1.20;0.83;;;12.80;99.90;;;;;;4995134;28;20441;-72
2021/10/04 00:38:58;;;;;;;1.30;1.10;;;12.90;99.90;;;;;;4994347;28;20556;-72
2021/10/04 00:41:25;;;;;;;1.60;1.00;;;12.90;99.90;;;;;;5000707;28;20462;-72
2021/10/04 00:43:54;;;;;;;1.30;1.00;;;12.80;99.90;;;;;;5003426;28;20493;-72
2021/10/04 00:46:21;;;;;;;1.40;0.90;;;12.80;99.90;;;;;;5005252;28;20719;-74
2021/10/04 00:48:50;;;;;;;1.33;1.00;;;12.90;99.90;;;;;;4999204;28;20531;-73
2021/10/04 00:51:19;;;;;;;1.10;0.90;;;12.80;99.90;;;;;;4998062;28;20549;-72
2021/10/04 00:53:47;;;;;;;1.27;1.00;;;12.70;99.90;;;;;;4997303;28;20464;-74
2021/10/04 00:56:14;;;;;;;1.20;0.80;;;12.70;99.90;;;;;;5004966;28;20549;-71
2021/10/04 00:58:41;;;;;;;1.00;0.80;;;12.70;99.90;;;;;;5002910;28;20651;-72
2021/10/04 01:01:08;;;;;;;1.20;1.00;;;12.70;99.90;;;;;;5003010;28;20457;-71
2021/10/04 01:03:35;;;;;;;2.57;1.03;;;12.80;99.90;;;;;;5011160;28;20557;-71
2021/10/04 01:06:04;;;;;;;1.23;0.83;;;12.80;99.90;;;;;;4998525;28;20484;-71
2021/10/04 01:08:31;;;;;;;1.50;0.90;;;12.60;99.90;;;;;;4999752;28;21053;-71
2021/10/04 01:10:58;;;;;;;1.63;1.30;;;12.60;99.90;;;;;;4991989;28;20540;-74
2021/10/04 01:13:25;;;;;;;5.33;1.17;;;12.70;99.90;;;;;;4994184;28;20549;-72
2021/10/04 01:15:52;;;;;;;1.00;0.80;;;12.70;99.90;;;;;;4994110;28;20549;-72
2021/10/04 01:18:19;;;;;;;1.30;1.00;;;12.80;99.90;;;;;;4995351;28;20985;-72
2021/10/04 01:20:48;;;;;;;1.40;1.20;;;12.70;99.90;;;;;;4992887;28;20471;-74
2021/10/04 01:23:15;;;;;;;1.10;0.90;;;12.70;99.90;;;;;;4996754;28;20516;-72
2021/10/04 01:25:42;;;;;;;3.47;1.33;;;12.70;99.90;;;;;;4995544;28;20487;-72
2021/10/04 01:28:08;;;;;;;3.97;1.70;;;12.60;99.90;;;;;;5000603;28;20509;-72
2021/10/04 01:30:36;;;;;;;1.87;0.90;;;12.50;99.90;;;;;;4996889;28;20601;-73
2021/10/04 01:33:03;;;;;;;1.33;1.00;;;12.60;99.90;;;;;;5004656;28;21018;-71
2021/10/04 01:35:30;;;;;;;1.10;0.90;;;12.60;99.90;;;;;;4996277;28;20962;-71
2021/10/04 01:37:59;;;;;;;1.00;0.70;;;12.60;99.90;;;;;;4997712;28;21101;-72
2021/10/04 01:40:26;;;;;;;2.20;1.33;;;12.60;99.90;;;;;;4996926;28;20465;-73
2021/10/04 01:42:53;;;;;;;7.43;1.20;;;12.70;99.90;;;;;;4993419;28;20962;-72
2021/10/04 01:45:23;;;;;;;1.30;1.07;;;12.70;99.90;;;;;;4991322;28;20481;-73
2021/10/04 01:47:51;;;;;;;2.20;2.10;;;12.70;99.90;;;;;;4998665;28;20828;-71
2021/10/04 01:50:19;;;;;;;3.17;1.30;;;12.70;99.90;;;;;;4990958;28;20563;-71
2021/10/04 01:52:46;;;;;;;3.10;1.40;;;12.70;99.90;;;;;;4990246;28;20474;-71
2021/10/04 01:55:15;;;;;;;1.20;0.80;;;12.70;99.90;;;;;;4996422;28;20544;-71
2021/10/04 01:57:43;;;;;;;1.53;1.43;;;12.70;99.90;;;;;;5000356;28;20471;-71
2021/10/04 02:00:13;;;;;;;1.40;0.90;;;12.70;99.90;;;;;;4990107;28;20745;-74
2021/10/04 02:02:42;;;;;;;2.07;1.50;;;12.70;99.90;;;;;;4992964;28;20548;-71
2021/10/04 02:05:10;;;;;;;1.17;1.00;;;12.70;99.90;;;;;;4995005;28;20551;-71
2021/10/04 02:07:37;;;;;;;1.30;1.00;;;12.60;99.90;;;;;;4991401;28;20560;-72
2021/10/04 02:10:06;;;;;;;1.80;1.30;;;12.70;99.90;;;;;;4994886;28;20480;-71
2021/10/04 02:12:35;;;;;;;3.60;1.10;;;12.60;99.90;;;;;;4998519;28;20559;-71
2021/10/04 02:15:03;;;;;;;2.23;1.00;;;12.60;99.90;;;;;;4996977;28;20541;-71
2021/10/04 02:17:31;;;;;;;1.40;0.90;;;12.60;99.90;;;;;;4993683;28;20571;-73
2021/10/04 02:19:58;;;;;;;1.10;0.93;;;12.50;99.90;;;;;;4996685;28;20954;-71
2021/10/04 02:22:25;;;;;;;1.87;1.33;;;12.60;99.90;;;;;;4995715;28;20455;-72
2021/10/04 02:24:53;;;;;;;1.10;0.90;;;12.50;99.90;;;;;;4996632;28;21405;-71
2021/10/04 02:27:20;;;;;;;2.23;1.13;;;12.50;99.90;;;;;;4994151;28;21064;-72
2021/10/04 02:29:48;;;;;;;0.90;0.70;;;12.60;99.90;;;;;;4991967;28;20472;-73
2021/10/04 02:32:15;;;;;;;1.40;0.90;;;12.60;99.90;;;;;;4999051;28;20967;-72
2021/10/04 02:34:43;;;;;;;1.97;1.10;;;12.60;99.90;;;;;;4999216;28;20540;-73
2021/10/04 02:37:10;;;;;;;1.13;0.90;;;12.60;99.90;;;;;;4995503;28;20515;-72
2021/10/04 02:39:37;;;;;;;1.40;1.07;;;12.60;99.90;;;;;;4993538;28;20620;-72
2021/10/04 02:42:04;;;;;;;1.80;1.20;;;12.70;99.90;;;;;;4998742;28;20479;-73
2021/10/04 02:44:31;;;;;;;1.27;1.00;;;12.70;99.90;;;;;;5003222;28;20535;-71
2021/10/04 02:46:59;;;;;;;2.23;1.33;;;12.60;99.90;;;;;;5000280;28;26261;-73
2021/10/04 02:49:27;;;;;;;1.00;0.80;;;12.60;99.90;;;;;;4997080;28;20557;-72
2021/10/04 02:51:54;;;;;;;2.27;1.20;;;12.60;99.90;;;;;;4995581;28;20447;-72
2021/10/04 02:54:21;;;;;;;2.50;0.90;;;12.60;99.90;;;;;;4992832;28;21038;-72
2021/10/04 02:56:48;;;;;;;1.20;1.00;;;12.50;99.90;;;;;;4993131;28;20458;-73
2021/10/04 02:59:15;;;;;;;2.50;1.03;;;12.50;99.90;;;;;;4992078;28;20581;-73
2021/10/04 03:01:42;;;;;;;1.67;1.13;;;12.40;99.90;;;;;;4996029;28;20445;-69
2021/10/04 03:04:10;;;;;;;3.00;1.63;;;12.50;99.90;;;;;;4992451;28;20488;-71
2021/10/04 03:06:37;;;;;;;1.20;0.90;;;12.50;99.90;;;;;;4993183;28;20465;-71
2021/10/04 03:09:05;;;;;;;1.83;1.73;;;12.50;99.90;;;;;;4993403;28;20604;-73
2021/10/04 03:11:32;;;;;;;1.50;1.00;;;12.30;99.90;;;;;;4996737;28;20639;-72
2021/10/04 03:13:59;;;;;;;1.10;0.90;;;12.40;99.90;;;;;;4986368;28;20558;-71
2021/10/04 03:16:26;;;;;;;2.90;1.30;;;12.50;99.90;;;;;;4991020;28;20824;-72
2021/10/04 03:18:53;;;;;;;1.20;0.90;;;12.70;99.90;;;;;;4984692;28;20995;-73
2021/10/04 03:21:21;;;;;;;3.23;1.00;;;12.70;99.90;;;;;;4986837;28;20557;-72
2021/10/04 03:23:48;;;;;;;1.30;1.03;;;12.70;99.90;;;;;;4988075;28;21256;-74
2021/10/04 03:26:16;;;;;;;3.83;1.10;;;12.60;99.90;;;;;;4988088;28;20470;-73
2021/10/04 03:28:43;;;;;;;1.93;1.00;;;12.60;99.90;;;;;;4989347;28;20829;-72
2021/10/04 03:31:10;;;;;;;1.07;0.80;;;12.70;99.90;;;;;;4987664;28;21881;-73
2021/10/04 03:33:37;;;;;;;1.27;1.00;;;12.60;99.90;;;;;;4990572;28;20461;-72
2021/10/04 03:36:05;;;;;;;1.67;1.20;;;12.40;99.90;;;;;;4984362;28;20540;-72
2021/10/04 03:38:33;;;;;;;1.00;0.80;;;12.40;99.90;;;;;;4987529;28;20545;-74
2021/10/04 03:41:00;;;;;;;2.30;1.00;;;12.30;99.90;;;;;;4993274;28;20493;-73
2021/10/04 03:43:27;;;;;;;1.93;1.20;;;12.40;99.90;;;;;;4995846;28;20496;-73
2021/10/04 03:45:54;;;;;;;1.27;1.10;;;12.40;99.90;;;;;;4993738;28;20468;-74
2021/10/04 03:48:21;;;;;;;3.00;2.80;;;12.40;99.90;;;;;;4995702;28;20564;-72
2021/10/04 03:50:48;;;;;;;1.30;1.20;;;12.50;99.90;;;;;;4986205;28;20726;-73
2021/10/04 03:53:15;;;;;;;1.10;0.80;;;12.50;99.90;;;;;;4990110;28;20567;-75
2021/10/04 03:55:44;;;;;;;1.20;0.87;;;12.50;99.90;;;;;;4992578;28;20639;-73
2021/10/04 03:58:11;;;;;;;1.97;1.47;;;12.50;99.90;;;;;;5002738;28;20552;-72
2021/10/04 04:00:39;;;;;;;1.00;0.80;;;12.50;99.90;;;;;;4995434;28;22011;-73
2021/10/04 04:03:06;;;;;;;2.17;2.07;;;12.50;99.90;;;;;;4992553;28;21133;-74
2021/10/04 04:05:34;;;;;;;1.77;1.10;;;12.60;99.90;;;;;;4971592;28;20489;-72
2021/10/04 04:08:02;;;;;;;2.13;1.53;;;12.60;99.90;;;;;;4996404;28;20568;-73
2021/10/04 04:10:29;;;;;;;1.00;0.80;;;12.60;99.90;;;;;;4993765;28;21020;-75
2021/10/04 04:12:57;;;;;;;1.13;0.80;;;12.50;99.90;;;;;;4997383;28;20999;-75
2021/10/04 04:15:24;;;;;;;1.20;0.83;;;12.60;99.90;;;;;;4992538;28;20457;-74
2021/10/04 04:17:51;;;;;;;1.60;1.00;;;12.60;99.90;;;;;;4995994;28;20578;-73
2021/10/04 04:20:18;;;;;;;9.07;1.30;;;12.60;99.90;;;;;;4985687;28;20539;-73
2021/10/04 04:22:46;;;;;;;1.10;0.97;;;12.70;99.90;;;;;;5000344;28;20550;-73
2021/10/04 04:25:13;;;;;;;1.10;1.00;;;12.70;99.90;;;;;;4999466;28;20500;-74
2021/10/04 04:27:41;;;;;;;1.20;1.10;;;12.60;99.90;;;;;;4992094;28;20804;-75
2021/10/04 04:30:12;;;;;;;5.83;1.37;;;12.60;99.90;;;;;;4980068;28;20900;-74
2021/10/04 04:32:40;;;;;;;1.83;1.13;;;12.70;99.90;;;;;;4981263;28;20465;-73
2021/10/04 04:35:08;;;;;;;1.00;0.80;;;12.70;99.90;;;;;;4992535;28;21418;-73
2021/10/04 04:37:35;;;;;;;1.43;1.03;;;12.80;99.90;;;;;;4990309;28;20622;-74
2021/10/04 04:40:03;;;;;;;1.20;0.80;;;12.70;99.90;;;;;;4980669;28;20554;-76
2021/10/04 04:42:30;;;;;;;2.10;1.00;;;12.70;99.90;;;;;;4992044;28;20537;-72
2021/10/04 04:44:57;;;;;;;3.37;1.07;;;12.70;99.90;;;;;;4995698;28;21000;-74
2021/10/04 04:47:26;;;;;;;1.43;1.10;;;12.70;99.90;;;;;;4991434;28;20551;-73
2021/10/04 04:49:53;;;;;;;2.90;1.00;;;12.70;99.90;;;;;;4989689;28;20502;-72
2021/10/04 04:52:20;;;;;;;1.13;0.90;;;12.70;99.90;;;;;;4995792;28;20473;-72
2021/10/04 04:54:47;;;;;;;1.50;1.00;;;12.70;99.90;;;;;;4997673;28;20461;-74
2021/10/04 04:57:14;;;;;;;1.10;0.90;;;12.80;99.90;;;;;;5000476;28;20547;-72
2021/10/04 04:59:41;;;;;;;1.03;0.90;;;12.80;99.90;;;;;;4999659;28;20531;-72
2021/10/04 05:02:08;;;;;;;1.13;1.00;;;12.80;99.90;;;;;;4997856;28;21088;-75
2021/10/04 05:04:36;;;;;;;1.70;1.10;;;12.80;99.90;;;;;;4999972;28;20534;-74
2021/10/04 05:07:04;;;;;;;1.47;1.37;;;12.70;99.90;;;;;;4995118;28;20511;-75
2021/10/04 05:09:31;;;;;;;1.00;0.90;;;12.80;99.90;;;;;;4994835;28;21033;-73
2021/10/04 05:11:58;;;;;;;1.43;1.10;;;12.80;99.90;;;;;;4999561;28;20531;-74
2021/10/04 05:14:24;;;;;;;1.40;1.20;;;12.70;99.90;;;;;;4997229;28;20453;-73
2021/10/04 05:16:51;;;;;;;1.30;1.10;;;12.60;99.90;;;;;;4995906;28;20596;-77
2021/10/04 05:19:18;;;;;;;3.07;1.23;;;12.70;99.90;;;;;;4999394;28;20520;-75
2021/10/04 05:21:47;;;;;;;2.50;1.10;;;12.70;99.90;;;;;;5000379;28;20546;-74
2021/10/04 05:24:14;;;;;;;1.57;1.40;;;12.80;99.90;;;;;;4996944;28;20617;-74
2021/10/04 05:26:41;;;;;;;3.47;0.90;;;12.80;99.90;;;;;;4998680;28;20552;-74
2021/10/04 05:29:09;;;;;;;1.50;1.10;;;12.90;99.90;;;;;;5002172;28;20866;-77
2021/10/04 05:31:36;;;;;;;1.77;1.27;;;12.80;99.90;;;;;;5005538;28;20476;-73
2021/10/04 05:34:03;;;;;;;1.30;1.00;;;12.80;99.90;;;;;;5005572;28;20462;-74
2021/10/04 05:36:30;;;;;;;1.00;0.80;;;12.80;99.90;;;;;;5007650;28;20558;-74
2021/10/04 05:39:00;;;;;;;1.20;0.90;;;12.90;99.90;;;;;;5007710;28;20648;-73
2021/10/04 05:41:27;;;;;;;3.13;0.87;;;12.90;99.90;;;;;;4997704;28;20460;-75
2021/10/04 05:43:54;;;;;;;1.30;1.13;;;12.90;99.90;;;;;;4998516;28;20827;-76
2021/10/04 05:46:21;;;;;;;1.33;0.93;;;12.80;99.90;;;;;;5004206;28;20515;-74
2021/10/04 05:48:48;;;;;;;5.00;2.83;;;12.70;99.90;;;;;;5004924;28;21036;-73
2021/10/04 05:51:15;;;;;;;1.23;1.00;;;12.60;99.90;;;;;;5000873;28;20457;-76
2021/10/04 05:53:42;;;;;;;1.63;1.53;;;12.80;99.90;;;;;;5002571;28;20458;-73
2021/10/04 05:56:10;;;;;;;1.70;0.93;;;12.90;99.90;;;;;;5000983;28;20492;-74
2021/10/04 05:58:37;;;;;;;1.30;1.03;;;13.00;99.90;;;;;;5001326;28;22271;-74
2021/10/04 06:01:04;;;;;;;1.30;1.00;;;13.00;99.90;;;;;;5001131;28;20533;-73
2021/10/04 06:03:32;;;;;;;1.10;0.80;;;13.00;99.90;;;;;;5004977;28;20477;-73
2021/10/04 06:05:59;;;;;;;7.50;1.30;;;12.90;99.90;;;;;;5003746;28;20524;-72
2021/10/04 06:08:26;;;;;;;4.00;2.20;;;12.90;99.90;;;;;;5002214;28;20509;-73
2021/10/04 06:10:53;;;;;;;1.10;0.87;;;12.90;99.90;;;;;;5001039;28;20520;-74
2021/10/04 06:13:22;;;;;;;1.07;0.93;;;13.00;99.90;;;;;;5004411;28;20949;-75
2021/10/04 06:15:48;;;;;;;3.00;1.10;;;13.10;99.90;;;;;;5002791;28;20457;-72
2021/10/04 06:18:15;;;;;;;1.57;1.17;;;13.10;99.90;;;;;;5005444;28;20474;-74
2021/10/04 06:20:43;;;;;;;1.33;0.80;;;13.10;99.90;;;;;;5003438;28;20493;-73
2021/10/04 06:23:10;;;;;;;1.13;0.90;;;13.20;99.90;;;;;;5003737;28;20617;-74
2021/10/04 06:25:38;;;;;;;1.67;1.13;;;13.10;99.90;;;;;;5001863;28;21697;-75
2021/10/04 06:28:05;;;;;;;1.17;0.97;;;13.10;99.90;;;;;;5004739;28;20571;-73
2021/10/04 06:30:33;;;;;;;1.63;1.00;;;13.10;99.90;;;;;;4996922;28;20465;-73
2021/10/04 06:33:01;;;;;;;1.60;0.80;;;13.10;99.90;;;;;;4999969;28;20489;-73
2021/10/04 06:35:27;;;;;;;1.77;1.10;;;13.10;99.90;;;;;;5001791;28;20456;-75
2021/10/04 06:37:55;;;;;;;1.67;1.20;;;13.10;99.90;;;;;;5000808;28;20981;-74
2021/10/04 06:40:22;;;;;;;8.10;1.10;;;13.10;99.90;;;;;;5001519;28;20579;-72
2021/10/04 06:42:50;;;;;;;1.27;0.97;;;13.10;99.90;;;;;;4999201;28;20500;-74
2021/10/04 06:45:17;;;;;;;1.23;0.97;;;13.10;99.90;;;;;;5001136;28;20992;-73
2021/10/04 06:47:46;;;;;;;1.33;1.13;;;13.10;99.90;;;;;;4999935;28;20501;-74
2021/10/04 06:50:13;;;;;;;1.47;1.20;;;13.20;99.90;;;;;;4998413;28;20840;-76
2021/10/04 06:52:42;;;;;;;3.73;1.50;;;13.20;99.90;;;;;;5006129;28;20528;-74
2021/10/04 06:55:11;;;;;;;2.77;1.27;;;13.20;99.90;;;;;;5001495;28;20473;-74
2021/10/04 06:57:39;;;;;;;2.03;1.13;;;13.20;99.90;;;;;;5002656;28;20464;-74
2021/10/04 07:00:09;;;;;;;1.00;0.70;;;13.30;99.90;;;;;;5000943;28;20453;-73
2021/10/04 07:02:38;;;;;;;1.10;1.00;;;13.30;99.90;;;;;;5003728;28;20473;-73
2021/10/04 07:05:07;;;;;;;1.10;1.00;;;13.30;99.90;;;;;;5000991;28;20572;-74
2021/10/04 07:07:34;;;;;;;1.20;0.83;;;13.30;99.90;;;;;;5003522;28;20453;-74
2021/10/04 07:10:01;;;;;;;1.83;1.20;;;13.30;99.90;;;;;;4999015;28;20493;-73
2021/10/04 07:12:28;;;;;;;1.20;0.93;;;13.40;99.90;;;;;;5009606;28;20436;-73
2021/10/04 07:14:55;;;;;;;8.20;1.10;;;13.50;99.90;;;;;;5003682;28;20497;-72
2021/10/04 07:17:23;;;;;;;1.90;1.43;;;13.60;99.90;;;;;;5007155;28;20472;-76
2021/10/04 07:19:50;;;;;;;1.40;1.10;;;13.70;99.90;;;;;;5013542;28;20504;-76
2021/10/04 07:22:18;;;;;;;1.57;1.10;;;13.70;99.90;;;;;;5006762;28;20446;-76
2021/10/04 07:24:45;;;;;;;1.50;1.23;;;13.80;99.90;;;;;;5009034;28;20596;-74
2021/10/04 07:27:13;;;;;;;1.70;1.20;;;13.80;99.90;;;;;;5010734;28;20449;-77
2021/10/04 07:29:40;;;;;;;1.20;1.07;;;13.80;99.90;;;;;;5009050;28;20615;-73
2021/10/04 07:32:07;;;;;;;1.30;0.93;;;13.80;99.90;;;;;;5008344;28;20678;-74
2021/10/04 07:34:34;;;;;;;1.20;1.00;;;13.90;99.90;;;;;;5005860;28;20445;-73
2021/10/04 07:37:02;;;;;;;5.23;1.10;;;13.90;99.90;;;;;;5005720;28;20555;-74
2021/10/04 07:39:31;;;;;;;3.73;1.30;;;14.00;99.90;;;;;;4998106;28;22192;-73
2021/10/04 07:41:59;;;;;;;1.80;1.33;;;14.10;99.90;;;;;;5001425;28;20454;-75
2021/10/04 07:44:27;;;;;;;1.77;1.27;;;14.10;99.90;;;;;;4998654;28;20890;-73
2021/10/04 07:46:57;;;;;;;1.53;1.27;;;14.20;99.90;;;;;;5002835;28;20485;-76
2021/10/04 07:49:23;;;;;;;1.73;1.03;;;14.10;99.90;;;;;;5003243;28;20481;-77
2021/10/04 07:51:50;;;;;;;1.50;1.23;;;14.10;99.90;;;;;;5009070;28;20548;-73
2021/10/04 07:54:18;;;;;;;4.80;1.47;;;14.20;99.90;;;;;;5010640;28;20576;-74
2021/10/04 07:56:46;;;;;;;1.33;1.17;;;14.30;99.90;;;;;;5007379;28;20458;-72
2021/10/04 07:59:13;;;;;;;1.80;1.33;;;14.20;99.90;;;;;;4997538;28;20579;-71
2021/10/04 08:01:40;;;;;;;1.60;1.00;;;14.30;99.90;;;;;;5005799;28;20511;-72
2021/10/04 08:04:08;;;;;;;1.10;0.90;;;14.20;99.90;;;;;;5003824;28;20504;-73
2021/10/04 08:06:35;;;;;;;1.67;1.13;;;14.40;99.90;;;;;;5001456;28;21135;-74
2021/10/04 08:09:02;;;;;;;9.00;1.43;;;14.60;99.90;;;;;;4997321;28;20482;-75
2021/10/04 08:11:29;;;;;;;2.53;1.03;;;14.50;99.90;;;;;;5001343;28;20541;-74
2021/10/04 08:13:58;;;;;;;1.30;1.00;;;14.50;99.90;;;;;;4998859;28;21010;-73
2021/10/04 08:16:25;;;;;;;2.53;1.00;;;14.60;99.90;;;;;;5003864;28;20508;-73
2021/10/04 08:18:53;;;;;;;1.47;1.10;;;14.50;99.90;;;;;;5002284;28;20562;-72
2021/10/04 08:21:21;;;;;;;1.27;0.87;;;14.70;99.90;;;;;;5005358;28;20457;-73
2021/10/04 08:23:49;;;;;;;3.13;1.17;;;14.70;99.90;;;;;;5007916;28;20457;-75
2021/10/04 08:26:17;;;;;;;1.63;1.10;;;14.70;99.90;;;;;;5000178;28;20509;-72
2021/10/04 08:28:44;;;;;;;1.17;1.07;;;14.90;99.90;;;;;;5008462;28;20504;-73
2021/10/04 08:31:12;;;;;;;2.00;1.20;;;15.00;99.90;;;;;;5002133;28;20492;-72
2021/10/04 08:33:39;;;;;;;1.10;0.70;;;15.20;99.90;;;;;;5002269;28;20934;-73
2021/10/04 08:36:06;;;;;;;1.40;1.07;;;15.30;99.90;;;;;;4999363;28;20472;-74
2021/10/04 08:38:35;;;;;;;1.00;0.80;;;15.30;99.90;;;;;;4996997;28;20576;-73
2021/10/04 08:41:02;;;;;;;1.83;0.90;;;15.30;99.90;;;;;;4998416;28;20523;-73
2021/10/04 08:43:29;;;;;;;2.13;1.57;;;15.30;99.90;;;;;;5002044;28;20457;-75
2021/10/04 08:45:59;;;;;;;1.20;1.00;;;15.30;99.90;;;;;;5007391;28;20543;-73
2021/10/04 08:48:28;;;;;;;3.30;1.10;;;15.40;99.90;;;;;;4999582;28;20484;-73
2021/10/04 08:50:55;;;;;;;1.30;1.10;;;15.50;99.90;;;;;;4999174;28;20541;-73
2021/10/04 08:53:23;;;;;;;1.70;1.10;;;15.50;99.90;;;;;;4998723;28;20539;-74
2021/10/04 08:55:50;;;;;;;2.33;1.50;;;15.40;99.90;;;;;;5001725;28;20462;-75
2021/10/04 08:58:17;;;;;;;1.77;1.40;;;15.30;99.90;;;;;;5000804;28;20516;-73
2021/10/04 09:00:46;;;;;;;3.47;1.33;;;15.20;99.90;;;;;;4998111;28;20988;-75
2021/10/04 09:03:13;;;;;;;2.17;1.00;;;15.30;99.90;;;;;;5000042;28;20532;-73
2021/10/04 09:05:44;;;;;;;1.67;1.00;;;15.40;99.90;;;;;;4995855;28;20478;-73
2021/10/04 09:08:15;;;;;;;4.60;0.90;;;15.50;99.90;;;;;;4998732;28;20542;-75
2021/10/04 09:10:44;;;;;;;2.27;1.00;;;15.70;99.90;;;;;;4999003;28;20532;-73
2021/10/04 09:13:13;;;;;;;1.23;1.03;;;15.60;99.90;;;;;;4999034;28;20458;-74
2021/10/04 09:15:41;;;;;;;1.77;1.03;;;15.80;99.90;;;;;;4997180;28;20444;-77
2021/10/04 09:18:11;;;;;;;1.70;1.00;;;16.00;99.90;;;;;;5000838;28;20576;-74
2021/10/04 09:20:54;;;;;;;1.20;1.03;;;16.10;99.90;;;;;;5001338;28;20484;-74
2021/10/04 09:23:46;;;;;;;2.40;1.23;;;16.20;99.90;;;;;;5004258;28;20461;-73
2021/10/04 09:26:32;;;;;;;2.40;1.17;;;16.30;99.90;;;;;;5004466;28;20504;-74
2021/10/04 09:29:03;;;;;;;1.60;1.00;;;16.50;99.90;;;;;;4997985;28;20603;-73
2021/10/04 09:31:32;;;;;;;3.13;1.30;;;16.70;99.90;;;;;;5000437;28;21073;-73
2021/10/04 09:34:18;;;;;;;1.20;1.10;;;16.60;99.90;;;;;;5003870;28;20488;-73
2021/10/04 09:36:49;;;;;;;1.70;1.00;;;17.10;99.90;;;;;;5003985;28;20449;-75
2021/10/04 09:39:24;;;;;;;3.93;1.20;;;17.80;99.90;;;;;;5001588;28;20500;-73
2021/10/04 09:42:01;;;;;;;3.33;1.63;;;17.90;99.90;;;;;;4999702;28;20464;-73
2021/10/04 09:44:41;;;;;;;1.00;0.80;;;17.60;99.90;;;;;;5001287;28;20588;-73
2021/10/04 09:47:13;;;;;;;1.20;0.90;;;17.80;99.90;;;;;;5003727;28;20551;-73
2021/10/04 09:49:56;;;;;;;3.20;1.20;;;18.60;99.90;;;;;;5002320;28;20877;-73
2021/10/04 09:52:36;;;;;;;1.10;0.80;;;19.30;99.90;;;;;;5002692;28;20486;-74
2021/10/04 09:55:17;;;;;;;1.50;1.10;;;19.60;99.90;;;;;;5001386;28;20480;-75
2021/10/04 09:57:58;;;;;;;1.60;1.00;;;19.60;99.90;;;;;;5002908;28;20482;-72
2021/10/04 10:00:25;;;;;;;1.13;0.90;;;19.70;99.90;;;;;;5001308;28;20591;-72
2021/10/04 10:02:57;;;;;;;1.30;1.00;;;19.80;99.90;;;;;;5002286;28;21187;-72
2021/10/04 10:05:28;;;;;;;2.07;1.20;;;20.00;99.90;;;;;;5005882;28;20485;-73
2021/10/04 10:07:57;;;;;;;2.93;1.30;;;20.80;99.90;;;;;;5000585;28;22340;-75
2021/10/04 10:10:24;;;;;;;2.17;1.30;;;20.60;99.90;;;;;;5003246;28;20487;-72
2021/10/04 10:12:52;;;;;;;2.90;0.80;;;20.70;99.90;;;;;;5005812;28;21003;-73
2021/10/04 10:15:22;;;;;;;1.20;0.90;;;20.80;99.90;;;;;;5004183;28;20460;-73
2021/10/04 10:17:51;;;;;;;2.80;1.00;;;20.60;99.90;;;;;;4998339;28;20509;-75
2021/10/04 10:20:22;;;;;;;1.83;1.20;;;20.50;99.90;;;;;;5003195;28;21558;-76
2021/10/04 10:22:50;;;;;;;1.40;0.90;;;20.20;99.90;;;;;;5006326;28;20915;-74
2021/10/04 10:25:33;;;;;;;1.33;0.90;;;19.90;99.90;;;;;;5005394;28;20458;-72
2021/10/04 10:28:01;;;;;;;5.63;1.30;;;19.10;99.90;;;;;;5002713;28;20555;-73
2021/10/04 10:30:29;;;;;;;2.77;1.20;;;18.60;99.90;;;;;;5000710;28;20457;-75
2021/10/04 10:32:58;;;;;;;1.20;1.00;;;18.30;99.90;;;;;;5005370;28;20540;-73
2021/10/04 10:35:47;;;;;;;4.57;1.07;;;18.10;99.90;;;;;;5003201;28;20917;-70
2021/10/04 10:38:15;;;;;;;1.23;1.13;;;18.10;99.90;;;;;;5004650;28;20474;-69
2021/10/04 10:40:43;;;;;;;1.20;0.93;;;18.20;99.90;;;;;;4997052;28;21035;-70
2021/10/04 10:43:12;;;;;;;4.83;1.07;;;18.50;99.90;;;;;;5006446;28;21231;-70
2021/10/04 10:45:41;;;;;;;2.80;0.80;;;19.50;99.90;;;;;;5009569;28;20544;-70
2021/10/04 10:48:09;;;;;;;1.47;1.27;;;20.30;99.90;;;;;;5004331;28;20481;-70
2021/10/04 10:50:42;;;;;;;3.67;1.30;;;21.30;99.90;;;;;;5004658;28;20508;-70
2021/10/04 10:53:18;;;;;;;1.93;0.80;;;21.60;99.90;;;;;;4999625;28;20481;-69
2021/10/04 10:55:53;;;;;;;1.63;1.00;;;21.60;99.90;;;;;;5003671;28;20572;-70
2021/10/04 10:58:24;;;;;;;4.13;1.73;;;21.10;99.90;;;;;;5000235;28;21180;-69
2021/10/04 11:01:16;;;;;;;2.37;1.27;;;20.50;99.90;;;;;;4997525;28;20644;-69
2021/10/04 11:03:53;;;;;;;3.70;1.10;;;20.00;99.90;;;;;;5000830;28;20543;-70
2021/10/04 11:06:37;;;;;;;1.20;0.90;;;19.70;99.90;;;;;;5001668;28;20477;-70
2021/10/04 11:09:04;;;;;;;1.20;1.03;;;19.60;99.90;;;;;;4996487;28;20872;-69
2021/10/04 11:11:35;;;;;;;1.83;1.30;;;19.60;99.90;;;;;;5000703;28;20473;-70
2021/10/04 11:14:21;;;;;;;3.93;1.10;;;19.80;99.90;;;;;;4999074;28;20557;-69
2021/10/04 11:17:03;;;;;;;2.73;1.20;;;19.90;99.90;;;;;;5001493;28;20449;-69
2021/10/04 11:19:36;;;;;;;1.50;1.10;;;19.80;99.90;;;;;;5001150;28;21010;-69
2021/10/04 11:22:05;;;;;;;2.03;1.17;;;20.20;99.90;;;;;;5000199;28;20954;-69
2021/10/04 11:24:37;;;;;;;1.47;1.10;;;20.20;99.90;;;;;;4999767;28;20457;-69
2021/10/04 11:27:06;;;;;;;2.13;1.10;;;20.30;99.90;;;;;;4995805;28;20497;-68
2021/10/04 11:29:35;;;;;;;1.93;1.00;;;20.50;99.90;;;;;;4997113;28;20543;-68
2021/10/04 11:32:14;;;;;;;1.70;1.20;;;21.00;99.90;;;;;;4997875;28;20454;-70
2021/10/04 11:34:41;;;;;;;1.67;1.17;;;21.00;99.90;;;;;;5000700;28;20891;-69
2021/10/04 11:37:08;;;;;;;2.70;1.20;;;22.10;99.90;;;;;;5000657;28;20453;-70
2021/10/04 11:39:36;;;;;;;3.67;1.10;;;22.30;99.90;;;;;;4995889;28;20509;-69
2021/10/04 11:42:07;;;;;;;3.63;1.10;;;22.90;99.90;;;;;;4999356;28;20476;-70
2021/10/04 11:44:37;;;;;;;1.00;0.70;;;23.20;99.90;;;;;;4999074;28;20460;-69
2021/10/04 11:47:07;;;;;;;3.73;1.10;;;23.00;99.90;;;;;;4998210;28;20807;-70
2021/10/04 11:49:36;;;;;;;3.23;1.13;;;23.50;99.90;;;;;;4995410;28;20481;-70
2021/10/04 11:52:06;;;;;;;2.30;1.80;;;23.90;99.90;;;;;;5006103;28;20445;-69
2021/10/04 11:54:41;;;;;;;1.90;0.87;;;23.90;99.90;;;;;;5001332;28;20464;-69
2021/10/04 11:57:13;;;;;;;1.53;1.10;;;23.60;99.90;;;;;;4999889;28;20519;-69
2021/10/04 11:59:48;;;;;;;4.23;1.53;;;23.60;99.90;;;;;;4995231;28;20509;-70
2021/10/04 12:02:21;;;;;;;1.20;0.80;;;23.40;99.90;;;;;;4997200;28;20472;-69
2021/10/04 12:04:49;;;;;;;1.97;1.00;;;23.50;99.90;;;;;;5001461;28;20824;-70
2021/10/04 12:07:17;;;;;;;1.40;1.00;;;24.70;99.90;;;;;;4997886;28;20614;-69
2021/10/04 12:09:44;;;;;;;1.10;0.80;;;24.70;99.90;;;;;;4997200;28;20612;-69
2021/10/04 12:12:13;;;;;;;1.43;1.00;;;23.50;99.90;;;;;;4997683;28;20537;-70
2021/10/04 12:14:45;;;;;;;1.70;0.90;;;23.00;99.90;;;;;;4995256;28;20454;-69
2021/10/04 12:17:12;;;;;;;1.50;0.97;;;23.20;99.90;;;;;;4999571;28;20529;-69
2021/10/04 12:19:39;;;;;;;1.20;0.80;;;23.00;99.90;;;;;;4996802;28;20481;-68
2021/10/04 12:22:06;;;;;;;2.07;1.33;;;23.60;99.90;;;;;;4996101;28;20446;-69
2021/10/04 12:24:41;;;;;;;4.60;1.00;;;24.80;99.90;;;;;;4997219;28;20457;-69
2021/10/04 12:27:15;;;;;;;1.87;1.00;;;25.10;99.90;;;;;;4999339;28;20476;-69
2021/10/04 12:29:44;;;;;;;1.10;0.80;;;25.10;99.80;;;;;;4994941;28;20473;-69
2021/10/04 12:32:35;;;;;;;1.50;1.10;;;24.40;98.90;;;;;;4996275;28;20785;-69
2021/10/04 12:35:09;;;;;;;2.10;1.23;;;24.70;99.90;;;;;;4997063;28;20556;-70
2021/10/04 12:37:38;;;;;;;1.17;0.97;;;25.10;98.20;;;;;;4994270;28;20601;-69
2021/10/04 12:40:22;;;;;;;1.20;0.93;;;24.20;98.60;;;;;;4993047;28;20515;-70
2021/10/04 12:42:52;;;;;;;1.47;0.93;;;24.00;99.10;;;;;;4998224;28;20493;-70
2021/10/04 12:45:19;;;;;;;4.40;1.47;;;22.70;99.90;;;;;;5000448;28;20459;-69
2021/10/04 12:48:05;;;;;;;5.10;1.10;;;21.90;99.90;;;;;;4998962;28;20891;-70
2021/10/04 12:50:35;;;;;;;1.40;1.13;;;21.90;99.90;;;;;;4996275;28;20576;-68
2021/10/04 12:53:13;;;;;;;1.87;1.43;;;22.80;99.90;;;;;;4995078;28;21014;-70
2021/10/04 12:55:59;;;;;;;2.17;1.33;;;23.50;99.60;;;;;;5001591;28;20898;-69
2021/10/04 12:58:29;;;;;;;3.40;1.10;;;23.40;99.50;;;;;;5000891;28;20472;-70